createdAt,value
2022-10-12T00:03:14.174Z,9.45
2022-10-12T00:08:21.191Z,10.52
2022-10-12T00:13:28.058Z,7.10
2022-10-12T00:18:38.132Z,9.18
2022-10-12T00:23:46.981Z,8.55
2022-10-12T00:28:58.688Z,7.57
2022-10-12T00:34:06.717Z,6.70
2022-10-12T00:39:13.590Z,16.40
2022-10-12T00:44:43.641Z,7.75
2022-10-12T00:49:57.993Z,8.18
2022-10-12T00:55:06.427Z,10.35
2022-10-12T01:00:15.118Z,7.17
2022-10-12T01:05:24.618Z,13.30
2022-10-12T01:10:35.085Z,11.38
2022-10-12T01:15:49.249Z,11.85
2022-10-12T01:21:23.060Z,11.35
2022-10-12T01:27:18.262Z,11.27
2022-10-12T01:32:32.599Z,12.85
2022-10-12T01:37:50.702Z,11.13
2022-10-12T01:42:57.688Z,9.52
2022-10-12T01:48:06.426Z,12.55
2022-10-12T01:53:29.635Z,9.90
2022-10-12T01:58:56.577Z,13.38
2022-10-12T02:04:12.711Z,10.00
2022-10-12T02:09:27.730Z,8.35
2022-10-12T02:14:40.173Z,11.07
2022-10-12T02:19:52.640Z,9.18
2022-10-12T02:25:01.636Z,17.55
2022-10-12T02:30:13.199Z,10.23
2022-10-12T02:35:29.448Z,9.88
2022-10-12T02:40:40.117Z,12.55
2022-10-12T02:45:49.876Z,8.20
2022-10-12T02:51:00.729Z,10.13
2022-10-12T02:56:09.482Z,7.95
2022-10-12T03:01:17.354Z,10.13
2022-10-12T03:06:25.330Z,11.85
2022-10-12T03:11:31.351Z,12.43
2022-10-12T03:16:37.565Z,11.88
2022-10-12T03:21:44.924Z,14.40
2022-10-12T03:31:59.188Z,12.82
2022-10-12T03:37:06.487Z,10.10
2022-10-12T03:42:12.251Z,14.35
2022-10-12T03:47:22.106Z,13.95
2022-10-12T03:52:30.343Z,12.10
2022-10-12T03:57:37.275Z,13.90
2022-10-12T04:02:43.595Z,11.45
2022-10-12T04:07:50.890Z,7.80
2022-10-12T04:12:56.793Z,12.98
2022-10-12T04:18:02.751Z,16.25
2022-10-12T04:23:10.200Z,11.20
2022-10-12T04:28:17.080Z,17.92
2022-10-12T04:33:23.142Z,12.48
2022-10-12T04:38:30.537Z,16.80
2022-10-12T04:43:36.374Z,18.83
2022-10-12T04:48:42.336Z,12.15
2022-10-12T04:53:49.785Z,18.27
2022-10-12T05:07:07.562Z,20.90
2022-10-12T05:13:05.211Z,25.00
2022-10-12T05:18:36.072Z,17.48
2022-10-12T05:23:43.802Z,24.40
2022-10-12T05:28:52.310Z,20.73
2022-10-12T05:34:47.869Z,20.80
2022-10-12T05:40:20.852Z,27.15
2022-10-12T05:45:54.064Z,18.10
2022-10-12T05:51:29.170Z,21.55
2022-10-12T05:57:06.736Z,15.57
2022-10-12T06:02:17.635Z,19.00
2022-10-12T06:08:13.880Z,22.20
2022-10-12T06:13:47.814Z,23.60
2022-10-12T06:19:24.289Z,18.83
2022-10-12T06:24:57.209Z,20.17
2022-10-12T06:30:04.292Z,20.83
2022-10-12T06:35:13.522Z,25.05
2022-10-12T06:41:39.488Z,18.55
2022-10-12T06:54:01.783Z,22.98
2022-10-12T06:59:13.186Z,18.52
2022-10-12T07:04:19.780Z,20.50
2022-10-12T07:09:32.160Z,23.27
2022-10-12T07:14:42.180Z,23.27
2022-10-12T07:20:18.120Z,26.30
2022-10-12T07:25:28.092Z,22.00
2022-10-12T07:31:03.556Z,18.75
2022-10-12T07:36:14.731Z,27.90
2022-10-12T07:41:25.840Z,20.25
2022-10-12T07:46:32.622Z,26.77
2022-10-12T07:51:46.690Z,22.45
2022-10-12T07:58:09.055Z,24.63
2022-10-12T08:03:42.074Z,20.60
2022-10-12T08:08:48.941Z,23.83
2022-10-12T08:13:56.352Z,17.73
2022-10-12T08:19:06.521Z,25.23
2022-10-12T08:24:18.024Z,20.88
2022-10-12T08:29:28.493Z,20.05
2022-10-12T08:35:29.376Z,17.00
2022-10-12T08:41:08.911Z,22.98
2022-10-12T08:53:59.369Z,16.73
2022-10-12T08:59:31.564Z,17.63
2022-10-12T09:05:05.724Z,15.32
2022-10-12T09:10:46.399Z,20.00
2022-10-12T09:16:01.670Z,14.88
2022-10-12T09:21:15.409Z,13.32
2022-10-12T09:27:18.519Z,18.50
2022-10-12T09:32:54.204Z,16.70
2022-10-12T09:38:26.106Z,20.20
2022-10-12T09:43:34.301Z,8.13
2022-10-12T09:48:57.291Z,20.70
2022-10-12T09:54:08.781Z,15.73
2022-10-12T10:00:34.650Z,9.68
2022-10-12T10:06:32.830Z,15.82
2022-10-12T10:12:15.746Z,13.07
2022-10-12T10:17:28.995Z,10.73
2022-10-12T10:22:37.251Z,9.05
2022-10-12T10:28:24.311Z,5.97
2022-10-12T10:33:36.867Z,13.75
2022-10-12T10:38:59.531Z,10.57
2022-10-12T10:44:07.286Z,8.93
2022-10-12T10:49:32.277Z,5.10
2022-10-12T10:55:18.220Z,9.25
2022-10-12T11:00:41.134Z,9.07
2022-10-12T11:06:21.021Z,8.45
2022-10-12T11:11:38.170Z,6.30
2022-10-12T11:16:51.192Z,13.70
2022-10-12T11:22:31.452Z,5.75
2022-10-12T11:28:04.285Z,7.28
2022-10-12T11:33:17.212Z,5.85
2022-10-12T11:39:21.823Z,5.82
2022-10-12T11:45:04.198Z,5.15
2022-10-12T11:50:31.026Z,7.47
2022-10-12T11:56:09.764Z,6.07
2022-10-12T12:01:54.060Z,8.00
2022-10-12T12:08:13.951Z,5.50
2022-10-12T12:13:45.369Z,6.60
2022-10-12T12:19:42.067Z,8.95
2022-10-12T12:25:06.788Z,5.30
2022-10-12T12:30:41.129Z,6.82
2022-10-12T12:35:59.912Z,5.85
2022-10-12T12:41:14.059Z,5.20
2022-10-12T12:53:19.051Z,7.50
2022-10-12T13:13:16.598Z,5.18
2022-10-12T13:18:49.242Z,5.22
2022-10-12T13:24:04.853Z,5.35
2022-10-12T13:29:23.487Z,6.22
2022-10-12T13:34:36.714Z,4.85
2022-10-12T13:39:47.234Z,7.15
2022-10-12T13:44:55.139Z,5.68
2022-10-12T13:50:01.490Z,3.42
2022-10-12T13:55:18.380Z,2.20
2022-10-12T14:00:27.921Z,4.32
2022-10-12T14:05:35.604Z,2.85
2022-10-12T14:10:44.798Z,1.80
2022-10-12T14:15:52.438Z,11.13
2022-10-12T14:21:12.331Z,5.05
2022-10-12T14:26:30.915Z,10.77
2022-10-12T14:31:53.406Z,8.68
2022-10-12T14:37:06.167Z,10.15
2022-10-12T14:42:22.873Z,9.43
2022-10-12T14:47:33.618Z,14.85
2022-10-12T14:52:44.538Z,12.93
2022-10-12T14:57:51.990Z,13.80
2022-10-12T15:03:00.106Z,16.35
2022-10-12T15:08:09.345Z,15.30
2022-10-12T15:18:22.883Z,24.90
2022-10-12T15:23:29.006Z,22.63
2022-10-12T15:28:35.245Z,25.75
2022-10-12T15:33:44.052Z,24.73
2022-10-12T15:43:55.703Z,16.95
2022-10-12T15:49:03.343Z,23.20
2022-10-12T15:54:09.580Z,19.88
2022-10-12T15:59:15.634Z,20.48
2022-10-12T16:04:23.385Z,23.38
2022-10-12T16:09:29.346Z,17.45
2022-10-12T16:14:35.470Z,19.20
2022-10-12T16:19:43.045Z,24.63
2022-10-12T16:24:49.095Z,31.85
2022-10-12T16:29:55.080Z,25.90
2022-10-12T16:35:02.545Z,22.52
2022-10-12T16:40:11.650Z,23.17
2022-10-12T16:45:17.811Z,22.85
2022-10-12T16:50:27.052Z,33.78
2022-10-12T16:55:33.075Z,23.58
2022-10-12T17:00:40.467Z,13.93
2022-10-12T17:05:48.294Z,18.20
2022-10-12T17:10:54.280Z,36.15
2022-10-12T17:16:14.082Z,24.50
2022-10-12T17:21:21.519Z,48.10
2022-10-12T17:26:28.595Z,33.92
2022-10-12T17:31:35.549Z,37.03
2022-10-12T17:36:43.064Z,31.67
2022-10-12T17:41:49.841Z,48.13
2022-10-12T17:46:55.992Z,66.18
2022-10-12T17:52:04.347Z,73.63
2022-10-12T17:57:11.268Z,39.73
2022-10-12T18:02:17.935Z,56.25
2022-10-12T18:07:27.755Z,59.88
2022-10-12T18:12:36.372Z,63.95
2022-10-12T18:17:43.041Z,66.20
2022-10-12T18:22:51.246Z,65.10
2022-10-12T18:27:57.420Z,67.53
2022-10-12T18:33:04.164Z,73.85
2022-10-12T18:38:14.991Z,67.43
2022-10-12T18:43:23.004Z,72.88
2022-10-12T18:48:31.220Z,63.75
2022-10-12T18:53:39.952Z,77.93
2022-10-12T18:58:46.869Z,76.80
2022-10-12T19:03:55.292Z,71.68
2022-10-12T19:09:03.731Z,73.60
2022-10-12T19:14:14.938Z,72.47
2022-10-12T19:19:22.012Z,95.05
2022-10-12T19:24:30.016Z,101.65
2022-10-12T19:29:37.101Z,108.78
2022-10-12T19:34:43.981Z,140.13
2022-10-12T19:39:53.292Z,110.53
2022-10-12T19:45:03.391Z,99.30
2022-10-12T19:50:11.315Z,105.43
2022-10-12T19:55:20.257Z,113.65
2022-10-12T20:00:27.526Z,112.97
2022-10-12T20:05:34.885Z,113.72
2022-10-12T20:10:43.144Z,126.32
2022-10-12T20:15:54.425Z,105.90
2022-10-12T20:21:02.300Z,114.18
2022-10-12T20:26:12.521Z,97.70
2022-10-12T20:31:19.709Z,99.60
2022-10-12T20:36:28.417Z,107.57
2022-10-12T20:41:36.018Z,116.97
2022-10-12T20:46:44.653Z,134.05
2022-10-12T20:51:51.655Z,120.03
2022-10-12T20:57:00.644Z,127.75
2022-10-12T21:02:06.830Z,120.78
2022-10-12T21:07:17.565Z,113.20
2022-10-12T21:12:25.304Z,129.40
2022-10-12T21:17:31.346Z,129.82
2022-10-12T21:22:37.523Z,124.03
2022-10-12T21:27:46.241Z,114.30
2022-10-12T21:32:52.319Z,91.40
2022-10-12T21:37:58.265Z,110.30
2022-10-12T21:43:05.811Z,81.35
2022-10-12T21:48:11.867Z,72.55
2022-10-12T21:53:18.547Z,65.25
2022-10-12T21:58:26.285Z,98.68
2022-10-12T22:03:33.055Z,84.47
2022-10-12T22:08:39.130Z,70.45
2022-10-12T22:13:54.782Z,75.40
2022-10-12T22:19:01.973Z,63.50
2022-10-12T22:24:14.209Z,51.28
2022-10-12T22:29:21.779Z,52.17
2022-10-12T22:34:28.866Z,54.25
2022-10-12T22:39:34.978Z,64.68
2022-10-12T22:44:42.475Z,57.65
2022-10-12T22:49:48.754Z,61.70
2022-10-12T22:54:55.062Z,62.35
2022-10-12T23:00:02.812Z,54.38
2022-10-12T23:10:18.174Z,56.60
2022-10-12T23:15:25.869Z,36.10
2022-10-12T23:20:32.389Z,41.30
2022-10-12T23:25:40.906Z,43.17
2022-10-12T23:30:49.491Z,48.97
2022-10-12T23:36:00.161Z,52.55
2022-10-12T23:41:07.178Z,44.00
2022-10-12T23:46:14.990Z,39.53
2022-10-12T23:51:22.113Z,44.83
2022-10-12T23:56:28.527Z,34.15
